sensor_id;sensor_type;location;lat;lon;timestamp;temperature;humidity
14347;DHT22;7257;52.158;9.968;2022-07-06T00:00:10;19.60;54.60
14347;DHT22;7257;52.158;9.968;2022-07-06T00:00:31;19.70;54.50
14347;DHT22;7257;52.158;9.968;2022-07-06T00:00:53;19.70;54.70
14347;DHT22;7257;52.158;9.968;2022-07-06T00:01:16;19.70;54.60
14347;DHT22;7257;52.158;9.968;2022-07-06T00:01:38;19.60;54.60
14347;DHT22;7257;52.158;9.968;2022-07-06T00:01:59;19.60;54.50
14347;DHT22;7257;52.158;9.968;2022-07-06T00:02:20;19.60;54.80
14347;DHT22;7257;52.158;9.968;2022-07-06T00:02:48;19.50;54.70
14347;DHT22;7257;52.158;9.968;2022-07-06T00:03:09;19.40;54.80
14347;DHT22;7257;52.158;9.968;2022-07-06T00:03:30;19.40;55.10
14347;DHT22;7257;52.158;9.968;2022-07-06T00:03:51;19.40;55.50
14347;DHT22;7257;52.158;9.968;2022-07-06T00:04:13;19.40;55.80
14347;DHT22;7257;52.158;9.968;2022-07-06T00:04:34;19.40;55.40
14347;DHT22;7257;52.158;9.968;2022-07-06T00:04:55;19.40;55.60
14347;DHT22;7257;52.158;9.968;2022-07-06T00:05:16;19.40;55.60
14347;DHT22;7257;52.158;9.968;2022-07-06T00:05:38;19.40;55.60
14347;DHT22;7257;52.158;9.968;2022-07-06T00:05:59;19.30;55.90
14347;DHT22;7257;52.158;9.968;2022-07-06T00:06:20;19.30;55.60
14347;DHT22;7257;52.158;9.968;2022-07-06T00:06:41;19.30;55.40
14347;DHT22;7257;52.158;9.968;2022-07-06T00:07:02;19.30;57.00
14347;DHT22;7257;52.158;9.968;2022-07-06T00:07:24;19.20;55.90
14347;DHT22;7257;52.158;9.968;2022-07-06T00:07:45;19.20;56.20
14347;DHT22;7257;52.158;9.968;2022-07-06T00:08:06;19.20;55.70
14347;DHT22;7257;52.158;9.968;2022-07-06T00:08:28;19.20;55.30
14347;DHT22;7257;52.158;9.968;2022-07-06T00:08:50;19.20;56.10
14347;DHT22;7257;52.158;9.968;2022-07-06T00:09:11;19.20;56.50
14347;DHT22;7257;52.158;9.968;2022-07-06T00:09:33;19.20;56.50
14347;DHT22;7257;52.158;9.968;2022-07-06T00:09:55;19.20;56.60
14347;DHT22;7257;52.158;9.968;2022-07-06T00:10:20;19.20;55.70
14347;DHT22;7257;52.158;9.968;2022-07-06T00:10:44;19.20;55.80
14347;DHT22;7257;52.158;9.968;2022-07-06T00:11:06;19.20;56.60
14347;DHT22;7257;52.158;9.968;2022-07-06T00:11:28;19.20;56.60
14347;DHT22;7257;52.158;9.968;2022-07-06T00:11:49;19.20;56.80
14347;DHT22;7257;52.158;9.968;2022-07-06T00:12:10;19.20;56.50
14347;DHT22;7257;52.158;9.968;2022-07-06T00:12:31;19.10;56.90
14347;DHT22;7257;52.158;9.968;2022-07-06T00:12:53;19.20;56.50
14347;DHT22;7257;52.158;9.968;2022-07-06T00:13:14;19.20;56.80
14347;DHT22;7257;52.158;9.968;2022-07-06T00:13:35;19.20;57.00
14347;DHT22;7257;52.158;9.968;2022-07-06T00:13:56;19.20;56.80
14347;DHT22;7257;52.158;9.968;2022-07-06T00:14:17;19.20;57.00
14347;DHT22;7257;52.158;9.968;2022-07-06T00:14:39;19.20;56.50
14347;DHT22;7257;52.158;9.968;2022-07-06T00:15:00;19.30;56.50
14347;DHT22;7257;52.158;9.968;2022-07-06T00:15:21;19.30;56.60
14347;DHT22;7257;52.158;9.968;2022-07-06T00:15:43;19.30;56.40
14347;DHT22;7257;52.158;9.968;2022-07-06T00:16:04;19.30;56.60
14347;DHT22;7257;52.158;9.968;2022-07-06T00:16:28;19.30;56.70
14347;DHT22;7257;52.158;9.968;2022-07-06T00:16:49;19.30;56.60
14347;DHT22;7257;52.158;9.968;2022-07-06T00:17:10;19.30;56.80
14347;DHT22;7257;52.158;9.968;2022-07-06T00:17:31;19.30;56.20
14347;DHT22;7257;52.158;9.968;2022-07-06T00:17:53;19.30;56.60
14347;DHT22;7257;52.158;9.968;2022-07-06T00:18:14;19.30;56.60
14347;DHT22;7257;52.158;9.968;2022-07-06T00:18:34;19.30;56.20
14347;DHT22;7257;52.158;9.968;2022-07-06T00:18:55;19.20;56.70
14347;DHT22;7257;52.158;9.968;2022-07-06T00:19:17;19.20;56.50
14347;DHT22;7257;52.158;9.968;2022-07-06T00:19:38;19.20;56.80
14347;DHT22;7257;52.158;9.968;2022-07-06T00:20:01;19.20;56.60
14347;DHT22;7257;52.158;9.968;2022-07-06T00:20:25;19.20;57.00
14347;DHT22;7257;52.158;9.968;2022-07-06T00:20:47;19.20;57.10
14347;DHT22;7257;52.158;9.968;2022-07-06T00:21:08;19.20;56.80
14347;DHT22;7257;52.158;9.968;2022-07-06T00:21:29;19.20;56.60
14347;DHT22;7257;52.158;9.968;2022-07-06T00:21:50;19.20;56.50
14347;DHT22;7257;52.158;9.968;2022-07-06T00:22:11;19.10;56.70
14347;DHT22;7257;52.158;9.968;2022-07-06T00:22:36;19.10;57.20
14347;DHT22;7257;52.158;9.968;2022-07-06T00:22:57;19.10;57.50
14347;DHT22;7257;52.158;9.968;2022-07-06T00:23:18;19.10;57.60
14347;DHT22;7257;52.158;9.968;2022-07-06T00:23:39;19.10;57.20
14347;DHT22;7257;52.158;9.968;2022-07-06T00:24:00;19.00;57.10
14347;DHT22;7257;52.158;9.968;2022-07-06T00:24:23;19.00;57.00
14347;DHT22;7257;52.158;9.968;2022-07-06T00:24:44;19.10;57.20
14347;DHT22;7257;52.158;9.968;2022-07-06T00:25:08;19.10;57.50
14347;DHT22;7257;52.158;9.968;2022-07-06T00:25:33;19.00;57.20
14347;DHT22;7257;52.158;9.968;2022-07-06T00:25:58;19.00;57.70
14347;DHT22;7257;52.158;9.968;2022-07-06T00:26:19;19.00;57.40
14347;DHT22;7257;52.158;9.968;2022-07-06T00:26:40;19.00;56.80
14347;DHT22;7257;52.158;9.968;2022-07-06T00:27:01;19.00;57.20
14347;DHT22;7257;52.158;9.968;2022-07-06T00:27:23;19.00;56.60
14347;DHT22;7257;52.158;9.968;2022-07-06T00:27:43;19.00;56.60
14347;DHT22;7257;52.158;9.968;2022-07-06T00:28:04;19.00;56.90
14347;DHT22;7257;52.158;9.968;2022-07-06T00:28:25;19.00;56.60
14347;DHT22;7257;52.158;9.968;2022-07-06T00:28:49;19.00;56.30
14347;DHT22;7257;52.158;9.968;2022-07-06T00:29:11;19.00;56.90
14347;DHT22;7257;52.158;9.968;2022-07-06T00:29:32;19.00;57.10
14347;DHT22;7257;52.158;9.968;2022-07-06T00:29:53;19.00;57.10
14347;DHT22;7257;52.158;9.968;2022-07-06T00:30:14;19.00;57.00
14347;DHT22;7257;52.158;9.968;2022-07-06T00:30:36;19.00;56.60
14347;DHT22;7257;52.158;9.968;2022-07-06T00:30:57;19.00;56.50
14347;DHT22;7257;52.158;9.968;2022-07-06T00:31:18;18.90;56.70
14347;DHT22;7257;52.158;9.968;2022-07-06T00:31:39;18.90;56.70
14347;DHT22;7257;52.158;9.968;2022-07-06T00:32:04;18.90;56.70
14347;DHT22;7257;52.158;9.968;2022-07-06T00:32:25;18.80;56.70
14347;DHT22;7257;52.158;9.968;2022-07-06T00:32:48;18.90;56.50
14347;DHT22;7257;52.158;9.968;2022-07-06T00:33:09;19.00;56.50
14347;DHT22;7257;52.158;9.968;2022-07-06T00:33:31;19.00;56.70
14347;DHT22;7257;52.158;9.968;2022-07-06T00:33:52;19.00;56.90
14347;DHT22;7257;52.158;9.968;2022-07-06T00:34:16;19.00;57.10
14347;DHT22;7257;52.158;9.968;2022-07-06T00:34:37;19.00;56.90
14347;DHT22;7257;52.158;9.968;2022-07-06T00:35:00;19.00;57.10
14347;DHT22;7257;52.158;9.968;2022-07-06T00:35:21;19.00;56.90
14347;DHT22;7257;52.158;9.968;2022-07-06T00:35:42;19.00;56.50
14347;DHT22;7257;52.158;9.968;2022-07-06T00:36:03;19.00;56.50
14347;DHT22;7257;52.158;9.968;2022-07-06T00:36:25;19.00;56.30
14347;DHT22;7257;52.158;9.968;2022-07-06T00:36:46;19.00;57.00
14347;DHT22;7257;52.158;9.968;2022-07-06T00:37:07;19.00;56.80
14347;DHT22;7257;52.158;9.968;2022-07-06T00:37:28;19.00;56.60
14347;DHT22;7257;52.158;9.968;2022-07-06T00:37:50;19.00;56.70
14347;DHT22;7257;52.158;9.968;2022-07-06T00:38:11;19.10;56.50
14347;DHT22;7257;52.158;9.968;2022-07-06T00:38:32;19.10;56.80
14347;DHT22;7257;52.158;9.968;2022-07-06T00:38:56;19.10;56.80
14347;DHT22;7257;52.158;9.968;2022-07-06T00:39:18;19.00;56.50
14347;DHT22;7257;52.158;9.968;2022-07-06T00:39:42;19.00;56.20
14347;DHT22;7257;52.158;9.968;2022-07-06T00:40:04;19.00;56.60
14347;DHT22;7257;52.158;9.968;2022-07-06T00:40:25;19.00;56.60
14347;DHT22;7257;52.158;9.968;2022-07-06T00:40:49;19.00;56.70
14347;DHT22;7257;52.158;9.968;2022-07-06T00:41:10;19.00;56.90
14347;DHT22;7257;52.158;9.968;2022-07-06T00:41:32;19.00;56.60
14347;DHT22;7257;52.158;9.968;2022-07-06T00:41:53;18.90;56.40
14347;DHT22;7257;52.158;9.968;2022-07-06T00:42:14;18.90;55.40
14347;DHT22;7257;52.158;9.968;2022-07-06T00:42:40;19.00;56.40
14347;DHT22;7257;52.158;9.968;2022-07-06T00:43:01;19.00;56.50
14347;DHT22;7257;52.158;9.968;2022-07-06T00:43:22;18.90;56.10
14347;DHT22;7257;52.158;9.968;2022-07-06T00:43:47;19.00;56.00
14347;DHT22;7257;52.158;9.968;2022-07-06T00:44:08;19.00;56.30
14347;DHT22;7257;52.158;9.968;2022-07-06T00:44:31;19.00;56.80
14347;DHT22;7257;52.158;9.968;2022-07-06T00:44:56;19.00;56.60
14347;DHT22;7257;52.158;9.968;2022-07-06T00:45:18;19.00;56.10
14347;DHT22;7257;52.158;9.968;2022-07-06T00:45:39;19.00;56.50
14347;DHT22;7257;52.158;9.968;2022-07-06T00:46:01;19.00;56.10
14347;DHT22;7257;52.158;9.968;2022-07-06T00:46:25;19.00;55.80
14347;DHT22;7257;52.158;9.968;2022-07-06T00:46:48;19.00;56.70
14347;DHT22;7257;52.158;9.968;2022-07-06T00:47:09;19.10;56.70
14347;DHT22;7257;52.158;9.968;2022-07-06T00:47:31;19.10;56.00
14347;DHT22;7257;52.158;9.968;2022-07-06T00:47:52;19.10;55.60
14347;DHT22;7257;52.158;9.968;2022-07-06T00:48:13;19.10;56.00
14347;DHT22;7257;52.158;9.968;2022-07-06T00:48:34;19.10;56.00
14347;DHT22;7257;52.158;9.968;2022-07-06T00:48:55;19.10;56.20
14347;DHT22;7257;52.158;9.968;2022-07-06T00:49:17;19.10;56.30
14347;DHT22;7257;52.158;9.968;2022-07-06T00:49:52;19.10;56.00
14347;DHT22;7257;52.158;9.968;2022-07-06T00:50:33;19.00;56.30
14347;DHT22;7257;52.158;9.968;2022-07-06T00:50:55;19.00;56.30
14347;DHT22;7257;52.158;9.968;2022-07-06T00:51:16;19.00;56.40
14347;DHT22;7257;52.158;9.968;2022-07-06T00:51:38;19.00;56.60
14347;DHT22;7257;52.158;9.968;2022-07-06T00:52:00;19.00;56.90
14347;DHT22;7257;52.158;9.968;2022-07-06T00:52:24;19.00;56.60
14347;DHT22;7257;52.158;9.968;2022-07-06T00:52:47;18.80;56.40
14347;DHT22;7257;52.158;9.968;2022-07-06T00:53:09;19.00;56.20
14347;DHT22;7257;52.158;9.968;2022-07-06T00:53:30;19.00;56.30
14347;DHT22;7257;52.158;9.968;2022-07-06T00:53:52;19.00;55.80
14347;DHT22;7257;52.158;9.968;2022-07-06T00:54:14;19.00;56.80
14347;DHT22;7257;52.158;9.968;2022-07-06T00:54:36;19.00;56.80
14347;DHT22;7257;52.158;9.968;2022-07-06T00:54:58;19.00;56.70
14347;DHT22;7257;52.158;9.968;2022-07-06T00:55:24;19.00;56.80
14347;DHT22;7257;52.158;9.968;2022-07-06T00:55:45;19.00;56.90
14347;DHT22;7257;52.158;9.968;2022-07-06T00:56:09;19.00;57.10
14347;DHT22;7257;52.158;9.968;2022-07-06T00:56:34;18.80;56.20
14347;DHT22;7257;52.158;9.968;2022-07-06T00:56:55;19.00;56.60
14347;DHT22;7257;52.158;9.968;2022-07-06T00:57:17;18.90;56.20
14347;DHT22;7257;52.158;9.968;2022-07-06T00:57:40;19.00;56.90
14347;DHT22;7257;52.158;9.968;2022-07-06T00:58:06;19.00;56.20
14347;DHT22;7257;52.158;9.968;2022-07-06T00:58:27;19.00;56.40
14347;DHT22;7257;52.158;9.968;2022-07-06T00:58:48;18.90;56.40
14347;DHT22;7257;52.158;9.968;2022-07-06T00:59:10;18.90;56.20
14347;DHT22;7257;52.158;9.968;2022-07-06T00:59:33;18.90;57.00
14347;DHT22;7257;52.158;9.968;2022-07-06T00:59:56;18.80;56.80
14347;DHT22;7257;52.158;9.968;2022-07-06T01:00:19;18.90;56.70
14347;DHT22;7257;52.158;9.968;2022-07-06T01:00:43;18.80;56.70
14347;DHT22;7257;52.158;9.968;2022-07-06T01:01:05;18.80;56.50
14347;DHT22;7257;52.158;9.968;2022-07-06T01:01:26;18.90;56.80
14347;DHT22;7257;52.158;9.968;2022-07-06T01:01:47;18.80;56.40
14347;DHT22;7257;52.158;9.968;2022-07-06T01:02:11;18.80;56.20
14347;DHT22;7257;52.158;9.968;2022-07-06T01:02:37;18.70;56.00
14347;DHT22;7257;52.158;9.968;2022-07-06T01:02:58;18.70;56.20
14347;DHT22;7257;52.158;9.968;2022-07-06T01:03:19;18.70;56.80
14347;DHT22;7257;52.158;9.968;2022-07-06T01:03:40;18.60;57.10
14347;DHT22;7257;52.158;9.968;2022-07-06T01:04:02;18.60;56.80
14347;DHT22;7257;52.158;9.968;2022-07-06T01:04:26;18.60;56.50
14347;DHT22;7257;52.158;9.968;2022-07-06T01:04:48;18.70;56.80
14347;DHT22;7257;52.158;9.968;2022-07-06T01:05:11;18.60;56.90
14347;DHT22;7257;52.158;9.968;2022-07-06T01:05:34;18.70;57.00
14347;DHT22;7257;52.158;9.968;2022-07-06T01:05:55;18.80;56.90
14347;DHT22;7257;52.158;9.968;2022-07-06T01:06:16;18.70;56.40
14347;DHT22;7257;52.158;9.968;2022-07-06T01:06:37;18.70;56.40
14347;DHT22;7257;52.158;9.968;2022-07-06T01:07:02;18.80;56.60
14347;DHT22;7257;52.158;9.968;2022-07-06T01:07:23;18.80;56.60
14347;DHT22;7257;52.158;9.968;2022-07-06T01:07:48;18.80;57.20
14347;DHT22;7257;52.158;9.968;2022-07-06T01:08:09;18.80;56.50
14347;DHT22;7257;52.158;9.968;2022-07-06T01:08:32;18.80;56.30
14347;DHT22;7257;52.158;9.968;2022-07-06T01:08:53;18.80;56.70
14347;DHT22;7257;52.158;9.968;2022-07-06T01:09:14;18.80;56.00
14347;DHT22;7257;52.158;9.968;2022-07-06T01:09:36;18.90;56.50
14347;DHT22;7257;52.158;9.968;2022-07-06T01:09:58;18.90;56.30
14347;DHT22;7257;52.158;9.968;2022-07-06T01:10:20;18.80;56.40
14347;DHT22;7257;52.158;9.968;2022-07-06T01:10:41;18.80;55.90
14347;DHT22;7257;52.158;9.968;2022-07-06T01:11:04;18.90;56.10
14347;DHT22;7257;52.158;9.968;2022-07-06T01:11:29;18.80;56.00
14347;DHT22;7257;52.158;9.968;2022-07-06T01:11:52;18.80;57.00
14347;DHT22;7257;52.158;9.968;2022-07-06T01:12:14;19.00;57.10
14347;DHT22;7257;52.158;9.968;2022-07-06T01:12:36;18.80;55.90
14347;DHT22;7257;52.158;9.968;2022-07-06T01:12:57;19.00;55.70
14347;DHT22;7257;52.158;9.968;2022-07-06T01:13:21;18.90;55.60
14347;DHT22;7257;52.158;9.968;2022-07-06T01:13:43;19.00;55.80
14347;DHT22;7257;52.158;9.968;2022-07-06T01:14:04;18.90;55.30
14347;DHT22;7257;52.158;9.968;2022-07-06T01:14:25;18.90;55.50
14347;DHT22;7257;52.158;9.968;2022-07-06T01:14:47;18.90;55.30
14347;DHT22;7257;52.158;9.968;2022-07-06T01:15:11;18.80;55.40
14347;DHT22;7257;52.158;9.968;2022-07-06T01:15:34;18.80;55.90
14347;DHT22;7257;52.158;9.968;2022-07-06T01:15:55;18.70;56.60
14347;DHT22;7257;52.158;9.968;2022-07-06T01:16:18;18.70;57.10
14347;DHT22;7257;52.158;9.968;2022-07-06T01:16:40;18.70;57.20
14347;DHT22;7257;52.158;9.968;2022-07-06T01:17:01;18.70;57.30
14347;DHT22;7257;52.158;9.968;2022-07-06T01:17:22;18.70;56.60
14347;DHT22;7257;52.158;9.968;2022-07-06T01:17:45;18.70;56.00
14347;DHT22;7257;52.158;9.968;2022-07-06T01:18:09;18.70;56.00
14347;DHT22;7257;52.158;9.968;2022-07-06T01:18:31;18.70;56.80
14347;DHT22;7257;52.158;9.968;2022-07-06T01:18:52;18.70;57.20
14347;DHT22;7257;52.158;9.968;2022-07-06T01:19:14;18.70;56.70
14347;DHT22;7257;52.158;9.968;2022-07-06T01:19:35;18.70;56.50
14347;DHT22;7257;52.158;9.968;2022-07-06T01:19:56;18.80;56.90
14347;DHT22;7257;52.158;9.968;2022-07-06T01:20:20;18.80;56.60
14347;DHT22;7257;52.158;9.968;2022-07-06T01:20:44;18.80;55.80
14347;DHT22;7257;52.158;9.968;2022-07-06T01:21:08;18.80;56.00
14347;DHT22;7257;52.158;9.968;2022-07-06T01:21:29;18.80;56.50
14347;DHT22;7257;52.158;9.968;2022-07-06T01:21:50;18.70;56.30
14347;DHT22;7257;52.158;9.968;2022-07-06T01:22:13;18.80;56.60
14347;DHT22;7257;52.158;9.968;2022-07-06T01:22:34;18.80;56.70
14347;DHT22;7257;52.158;9.968;2022-07-06T01:22:59;19.00;55.90
14347;DHT22;7257;52.158;9.968;2022-07-06T01:23:20;18.80;56.20
14347;DHT22;7257;52.158;9.968;2022-07-06T01:23:42;19.00;56.20
14347;DHT22;7257;52.158;9.968;2022-07-06T01:24:04;18.80;55.90
14347;DHT22;7257;52.158;9.968;2022-07-06T01:24:26;19.00;56.10
14347;DHT22;7257;52.158;9.968;2022-07-06T01:24:48;18.80;56.50
14347;DHT22;7257;52.158;9.968;2022-07-06T01:25:09;19.00;56.30
14347;DHT22;7257;52.158;9.968;2022-07-06T01:25:30;18.80;56.00
14347;DHT22;7257;52.158;9.968;2022-07-06T01:25:54;18.80;55.60
14347;DHT22;7257;52.158;9.968;2022-07-06T01:26:18;18.80;56.00
14347;DHT22;7257;52.158;9.968;2022-07-06T01:26:39;18.80;55.70
14347;DHT22;7257;52.158;9.968;2022-07-06T01:27:00;18.80;55.70
14347;DHT22;7257;52.158;9.968;2022-07-06T01:27:22;18.80;56.00
14347;DHT22;7257;52.158;9.968;2022-07-06T01:27:43;18.90;56.20
14347;DHT22;7257;52.158;9.968;2022-07-06T01:28:04;18.80;55.70
14347;DHT22;7257;52.158;9.968;2022-07-06T01:28:25;18.80;54.60
14347;DHT22;7257;52.158;9.968;2022-07-06T01:28:49;18.80;54.90
14347;DHT22;7257;52.158;9.968;2022-07-06T01:29:11;18.80;55.10
14347;DHT22;7257;52.158;9.968;2022-07-06T01:29:32;18.80;55.90
14347;DHT22;7257;52.158;9.968;2022-07-06T01:29:53;18.90;55.40
14347;DHT22;7257;52.158;9.968;2022-07-06T01:30:15;18.80;55.60
14347;DHT22;7257;52.158;9.968;2022-07-06T01:30:38;18.80;56.00
14347;DHT22;7257;52.158;9.968;2022-07-06T01:30:58;18.70;55.60
14347;DHT22;7257;52.158;9.968;2022-07-06T01:31:23;18.70;56.00
14347;DHT22;7257;52.158;9.968;2022-07-06T01:31:47;18.70;56.20
14347;DHT22;7257;52.158;9.968;2022-07-06T01:32:08;18.70;55.90
14347;DHT22;7257;52.158;9.968;2022-07-06T01:32:29;18.70;55.80
14347;DHT22;7257;52.158;9.968;2022-07-06T01:32:50;18.60;55.80
14347;DHT22;7257;52.158;9.968;2022-07-06T01:33:11;18.60;55.60
14347;DHT22;7257;52.158;9.968;2022-07-06T01:33:33;18.60;56.10
14347;DHT22;7257;52.158;9.968;2022-07-06T01:33:56;18.60;56.20
14347;DHT22;7257;52.158;9.968;2022-07-06T01:34:17;18.60;56.40
14347;DHT22;7257;52.158;9.968;2022-07-06T01:34:40;18.60;56.20
14347;DHT22;7257;52.158;9.968;2022-07-06T01:35:03;18.60;56.20
14347;DHT22;7257;52.158;9.968;2022-07-06T01:35:29;18.60;56.40
14347;DHT22;7257;52.158;9.968;2022-07-06T01:35:50;18.50;56.00
14347;DHT22;7257;52.158;9.968;2022-07-06T01:36:13;18.50;56.40
14347;DHT22;7257;52.158;9.968;2022-07-06T01:36:35;18.50;56.40
14347;DHT22;7257;52.158;9.968;2022-07-06T01:36:57;18.60;56.50
14347;DHT22;7257;52.158;9.968;2022-07-06T01:37:18;18.60;56.30
14347;DHT22;7257;52.158;9.968;2022-07-06T01:37:40;18.60;56.30
14347;DHT22;7257;52.158;9.968;2022-07-06T01:38:02;18.60;56.20
14347;DHT22;7257;52.158;9.968;2022-07-06T01:38:23;18.70;56.10
14347;DHT22;7257;52.158;9.968;2022-07-06T01:38:47;18.60;56.00
14347;DHT22;7257;52.158;9.968;2022-07-06T01:39:09;18.60;55.90
14347;DHT22;7257;52.158;9.968;2022-07-06T01:39:31;18.60;55.90
14347;DHT22;7257;52.158;9.968;2022-07-06T01:39:52;18.50;56.10
14347;DHT22;7257;52.158;9.968;2022-07-06T01:40:13;18.50;55.30
14347;DHT22;7257;52.158;9.968;2022-07-06T01:40:34;18.50;55.60
14347;DHT22;7257;52.158;9.968;2022-07-06T01:40:56;18.50;55.60
14347;DHT22;7257;52.158;9.968;2022-07-06T01:41:18;18.50;55.80
14347;DHT22;7257;52.158;9.968;2022-07-06T01:41:39;18.40;55.90
14347;DHT22;7257;52.158;9.968;2022-07-06T01:42:00;18.50;55.90
14347;DHT22;7257;52.158;9.968;2022-07-06T01:42:21;18.50;55.90
14347;DHT22;7257;52.158;9.968;2022-07-06T01:42:43;18.50;56.00
14347;DHT22;7257;52.158;9.968;2022-07-06T01:43:03;18.50;55.80
14347;DHT22;7257;52.158;9.968;2022-07-06T01:43:24;18.50;55.80
14347;DHT22;7257;52.158;9.968;2022-07-06T01:43:48;18.60;55.90
14347;DHT22;7257;52.158;9.968;2022-07-06T01:44:10;18.60;56.10
14347;DHT22;7257;52.158;9.968;2022-07-06T01:44:32;18.60;55.70
14347;DHT22;7257;52.158;9.968;2022-07-06T01:44:55;18.60;55.60
14347;DHT22;7257;52.158;9.968;2022-07-06T01:45:16;18.70;55.50
14347;DHT22;7257;52.158;9.968;2022-07-06T01:45:38;18.60;55.30
14347;DHT22;7257;52.158;9.968;2022-07-06T01:45:59;18.60;55.70
14347;DHT22;7257;52.158;9.968;2022-07-06T01:46:20;18.60;55.50
14347;DHT22;7257;52.158;9.968;2022-07-06T01:46:43;18.60;55.70
14347;DHT22;7257;52.158;9.968;2022-07-06T01:47:05;18.60;55.60
14347;DHT22;7257;52.158;9.968;2022-07-06T01:47:26;18.60;55.90
14347;DHT22;7257;52.158;9.968;2022-07-06T01:47:47;18.70;55.70
14347;DHT22;7257;52.158;9.968;2022-07-06T01:48:08;18.60;55.50
14347;DHT22;7257;52.158;9.968;2022-07-06T01:48:29;18.60;55.40
14347;DHT22;7257;52.158;9.968;2022-07-06T01:48:51;18.50;55.60
14347;DHT22;7257;52.158;9.968;2022-07-06T01:49:12;18.50;56.10
14347;DHT22;7257;52.158;9.968;2022-07-06T01:49:33;18.40;55.50
14347;DHT22;7257;52.158;9.968;2022-07-06T01:49:57;18.40;56.00
14347;DHT22;7257;52.158;9.968;2022-07-06T01:50:19;18.40;55.60
14347;DHT22;7257;52.158;9.968;2022-07-06T01:50:41;18.40;55.90
14347;DHT22;7257;52.158;9.968;2022-07-06T01:51:03;18.40;56.20
14347;DHT22;7257;52.158;9.968;2022-07-06T01:51:26;18.40;56.10
14347;DHT22;7257;52.158;9.968;2022-07-06T01:51:48;18.40;55.90
14347;DHT22;7257;52.158;9.968;2022-07-06T01:52:09;18.40;56.00
14347;DHT22;7257;52.158;9.968;2022-07-06T01:52:31;18.40;56.00
14347;DHT22;7257;52.158;9.968;2022-07-06T01:52:52;18.40;56.30
14347;DHT22;7257;52.158;9.968;2022-07-06T01:53:14;18.40;56.10
14347;DHT22;7257;52.158;9.968;2022-07-06T01:53:35;18.40;56.10
14347;DHT22;7257;52.158;9.968;2022-07-06T01:53:56;18.40;56.40
14347;DHT22;7257;52.158;9.968;2022-07-06T01:54:18;18.50;56.10
14347;DHT22;7257;52.158;9.968;2022-07-06T01:54:39;18.50;55.80
14347;DHT22;7257;52.158;9.968;2022-07-06T01:55:00;18.60;55.80
14347;DHT22;7257;52.158;9.968;2022-07-06T01:55:21;18.50;55.70
14347;DHT22;7257;52.158;9.968;2022-07-06T01:55:43;18.40;56.00
14347;DHT22;7257;52.158;9.968;2022-07-06T01:56:05;18.50;55.90
14347;DHT22;7257;52.158;9.968;2022-07-06T01:56:29;18.60;56.10
14347;DHT22;7257;52.158;9.968;2022-07-06T01:56:50;18.60;56.10
14347;DHT22;7257;52.158;9.968;2022-07-06T01:57:15;18.60;55.90
14347;DHT22;7257;52.158;9.968;2022-07-06T01:57:42;18.60;55.80
14347;DHT22;7257;52.158;9.968;2022-07-06T01:58:04;18.60;55.80
14347;DHT22;7257;52.158;9.968;2022-07-06T01:58:25;18.60;56.30
14347;DHT22;7257;52.158;9.968;2022-07-06T01:58:48;18.60;56.00
14347;DHT22;7257;52.158;9.968;2022-07-06T01:59:09;18.60;55.80
14347;DHT22;7257;52.158;9.968;2022-07-06T01:59:30;18.70;55.60
14347;DHT22;7257;52.158;9.968;2022-07-06T01:59:51;18.70;55.70
14347;DHT22;7257;52.158;9.968;2022-07-06T02:00:14;18.70;55.40
14347;DHT22;7257;52.158;9.968;2022-07-06T02:00:38;18.70;55.30
14347;DHT22;7257;52.158;9.968;2022-07-06T02:00:59;18.60;55.30
14347;DHT22;7257;52.158;9.968;2022-07-06T02:01:20;18.60;55.60
14347;DHT22;7257;52.158;9.968;2022-07-06T02:01:42;18.60;55.50
14347;DHT22;7257;52.158;9.968;2022-07-06T02:02:05;18.60;55.70
14347;DHT22;7257;52.158;9.968;2022-07-06T02:02:26;18.70;55.80
14347;DHT22;7257;52.158;9.968;2022-07-06T02:02:47;18.70;55.60
14347;DHT22;7257;52.158;9.968;2022-07-06T02:03:09;18.70;55.60
14347;DHT22;7257;52.158;9.968;2022-07-06T02:03:30;18.70;55.60
14347;DHT22;7257;52.158;9.968;2022-07-06T02:03:51;18.70;55.60
14347;DHT22;7257;52.158;9.968;2022-07-06T02:04:12;18.70;55.40
14347;DHT22;7257;52.158;9.968;2022-07-06T02:04:34;18.70;55.40
14347;DHT22;7257;52.158;9.968;2022-07-06T02:04:55;18.70;55.20
14347;DHT22;7257;52.158;9.968;2022-07-06T02:05:15;18.70;55.30
14347;DHT22;7257;52.158;9.968;2022-07-06T02:05:37;18.70;54.90
14347;DHT22;7257;52.158;9.968;2022-07-06T02:06:00;18.60;55.30
14347;DHT22;7257;52.158;9.968;2022-07-06T02:06:22;18.60;55.30
14347;DHT22;7257;52.158;9.968;2022-07-06T02:06:43;18.60;55.60
14347;DHT22;7257;52.158;9.968;2022-07-06T02:07:04;18.50;55.70
14347;DHT22;7257;52.158;9.968;2022-07-06T02:07:25;18.50;55.80
14347;DHT22;7257;52.158;9.968;2022-07-06T02:07:49;18.50;56.00
14347;DHT22;7257;52.158;9.968;2022-07-06T02:08:10;18.50;55.80
14347;DHT22;7257;52.158;9.968;2022-07-06T02:08:31;18.40;56.00
14347;DHT22;7257;52.158;9.968;2022-07-06T02:08:53;18.40;56.10
14347;DHT22;7257;52.158;9.968;2022-07-06T02:09:14;18.40;56.40
14347;DHT22;7257;52.158;9.968;2022-07-06T02:09:36;18.50;56.40
14347;DHT22;7257;52.158;9.968;2022-07-06T02:09:57;18.50;56.10
14347;DHT22;7257;52.158;9.968;2022-07-06T02:10:18;18.50;56.00
14347;DHT22;7257;52.158;9.968;2022-07-06T02:10:40;18.50;56.00
14347;DHT22;7257;52.158;9.968;2022-07-06T02:11:02;18.50;56.00
14347;DHT22;7257;52.158;9.968;2022-07-06T02:11:23;18.50;55.90
14347;DHT22;7257;52.158;9.968;2022-07-06T02:11:44;18.50;56.00
14347;DHT22;7257;52.158;9.968;2022-07-06T02:12:06;18.50;56.10
14347;DHT22;7257;52.158;9.968;2022-07-06T02:12:27;18.60;56.10
14347;DHT22;7257;52.158;9.968;2022-07-06T02:12:48;18.60;56.10
14347;DHT22;7257;52.158;9.968;2022-07-06T02:13:10;18.60;56.00
14347;DHT22;7257;52.158;9.968;2022-07-06T02:13:32;18.70;55.90
14347;DHT22;7257;52.158;9.968;2022-07-06T02:13:53;18.60;55.80
14347;DHT22;7257;52.158;9.968;2022-07-06T02:14:14;18.70;55.80
14347;DHT22;7257;52.158;9.968;2022-07-06T02:14:35;18.70;55.80
14347;DHT22;7257;52.158;9.968;2022-07-06T02:14:57;18.70;55.90
14347;DHT22;7257;52.158;9.968;2022-07-06T02:15:18;18.70;55.60
14347;DHT22;7257;52.158;9.968;2022-07-06T02:15:39;18.80;55.40
14347;DHT22;7257;52.158;9.968;2022-07-06T02:16:00;18.80;55.20
14347;DHT22;7257;52.158;9.968;2022-07-06T02:16:22;18.80;55.10
14347;DHT22;7257;52.158;9.968;2022-07-06T02:16:44;18.80;55.20
14347;DHT22;7257;52.158;9.968;2022-07-06T02:17:05;18.80;55.10
14347;DHT22;7257;52.158;9.968;2022-07-06T02:17:25;18.70;55.10
14347;DHT22;7257;52.158;9.968;2022-07-06T02:17:49;18.70;55.20
14347;DHT22;7257;52.158;9.968;2022-07-06T02:18:10;18.70;55.40
14347;DHT22;7257;52.158;9.968;2022-07-06T02:18:31;18.70;55.50
14347;DHT22;7257;52.158;9.968;2022-07-06T02:18:52;18.60;55.40
14347;DHT22;7257;52.158;9.968;2022-07-06T02:19:13;18.60;55.40
14347;DHT22;7257;52.158;9.968;2022-07-06T02:19:34;18.60;55.40
14347;DHT22;7257;52.158;9.968;2022-07-06T02:20:03;18.60;55.30
14347;DHT22;7257;52.158;9.968;2022-07-06T02:20:24;18.60;55.30
14347;DHT22;7257;52.158;9.968;2022-07-06T02:20:45;18.60;55.40
14347;DHT22;7257;52.158;9.968;2022-07-06T02:21:08;18.60;55.20